sensor_id;sensor_type;location;lat;lon;timestamp;pressure;altitude;pressure_sealevel;temperature;humidity
35989;BME280;22064;42.672;23.282;2023-03-25T00:01:07;94395.06;;;8.24;100.00
35989;BME280;22064;42.672;23.282;2023-03-25T00:03:35;94407.44;;;8.05;100.00
35989;BME280;22064;42.672;23.282;2023-03-25T00:06:07;94397.69;;;7.95;100.00
35989;BME280;22064;42.672;23.282;2023-03-25T00:08:33;94403.78;;;7.89;100.00
35989;BME280;22064;42.672;23.282;2023-03-25T00:11:01;94409.63;;;7.84;100.00
35989;BME280;22064;42.672;23.282;2023-03-25T00:13:29;94409.44;;;7.86;100.00
35989;BME280;22064;42.672;23.282;2023-03-25T00:15:58;94400.19;;;7.78;100.00
35989;BME280;22064;42.672;23.282;2023-03-25T00:18:26;94402.75;;;7.90;100.00
35989;BME280;22064;42.672;23.282;2023-03-25T00:21:00;94385.22;;;7.80;100.00
35989;BME280;22064;42.672;23.282;2023-03-25T00:23:27;94389.13;;;7.95;100.00
35989;BME280;22064;42.672;23.282;2023-03-25T00:25:54;94380.53;;;7.94;100.00
35989;BME280;22064;42.672;23.282;2023-03-25T00:28:26;94385.47;;;8.07;100.00
35989;BME280;22064;42.672;23.282;2023-03-25T00:30:53;94375.91;;;7.96;100.00
35989;BME280;22064;42.672;23.282;2023-03-25T00:33:19;94375.44;;;7.99;100.00
35989;BME280;22064;42.672;23.282;2023-03-25T00:35:50;94379.81;;;7.82;100.00
35989;BME280;22064;42.672;23.282;2023-03-25T00:38:16;94378.50;;;7.68;100.00
35989;BME280;22064;42.672;23.282;2023-03-25T00:40:43;94391.56;;;7.73;100.00
35989;BME280;22064;42.672;23.282;2023-03-25T00:43:11;94382.00;;;7.61;100.00
35989;BME280;22064;42.672;23.282;2023-03-25T00:45:37;94369.03;;;7.61;100.00
35989;BME280;22064;42.672;23.282;2023-03-25T00:48:03;94369.34;;;7.65;100.00
35989;BME280;22064;42.672;23.282;2023-03-25T00:50:29;94372.13;;;7.35;100.00
35989;BME280;22064;42.672;23.282;2023-03-25T00:52:55;94378.28;;;7.57;100.00
35989;BME280;22064;42.672;23.282;2023-03-25T00:55:20;94362.47;;;7.30;100.00
35989;BME280;22064;42.672;23.282;2023-03-25T00:57:47;94371.19;;;7.53;100.00
35989;BME280;22064;42.672;23.282;2023-03-25T01:00:15;94369.66;;;7.40;100.00
35989;BME280;22064;42.672;23.282;2023-03-25T01:02:42;94364.34;;;7.47;100.00
35989;BME280;22064;42.672;23.282;2023-03-25T01:05:10;94360.31;;;7.39;100.00
35989;BME280;22064;42.672;23.282;2023-03-25T01:07:37;94363.44;;;7.41;100.00
35989;BME280;22064;42.672;23.282;2023-03-25T01:10:05;94353.00;;;7.36;100.00
35989;BME280;22064;42.672;23.282;2023-03-25T01:12:31;94338.13;;;7.31;100.00
35989;BME280;22064;42.672;23.282;2023-03-25T01:14:57;94350.63;;;7.23;100.00
35989;BME280;22064;42.672;23.282;2023-03-25T01:17:23;94343.22;;;7.14;100.00
35989;BME280;22064;42.672;23.282;2023-03-25T01:19:49;94334.56;;;6.97;100.00
35989;BME280;22064;42.672;23.282;2023-03-25T01:22:16;94346.50;;;6.86;100.00
35989;BME280;22064;42.672;23.282;2023-03-25T01:24:42;94348.66;;;6.89;100.00
35989;BME280;22064;42.672;23.282;2023-03-25T01:27:08;94328.06;;;6.83;100.00
35989;BME280;22064;42.672;23.282;2023-03-25T01:29:34;94316.56;;;6.90;100.00
35989;BME280;22064;42.672;23.282;2023-03-25T01:32:00;94324.00;;;6.99;100.00
35989;BME280;22064;42.672;23.282;2023-03-25T01:34:26;94318.13;;;7.03;100.00
35989;BME280;22064;42.672;23.282;2023-03-25T01:36:52;94317.59;;;7.01;100.00
35989;BME280;22064;42.672;23.282;2023-03-25T01:39:20;94328.34;;;7.22;100.00
35989;BME280;22064;42.672;23.282;2023-03-25T01:41:48;94324.41;;;7.19;100.00
35989;BME280;22064;42.672;23.282;2023-03-25T01:46:47;94311.00;;;7.22;100.00
35989;BME280;22064;42.672;23.282;2023-03-25T01:49:26;94303.50;;;7.09;100.00
35989;BME280;22064;42.672;23.282;2023-03-25T01:54:39;94318.75;;;7.34;100.00
35989;BME280;22064;42.672;23.282;2023-03-25T01:57:07;94310.13;;;7.16;100.00
35989;BME280;22064;42.672;23.282;2023-03-25T01:59:35;94323.09;;;7.16;100.00
35989;BME280;22064;42.672;23.282;2023-03-25T02:02:05;94308.69;;;6.97;100.00
35989;BME280;22064;42.672;23.282;2023-03-25T02:04:46;94306.53;;;7.06;100.00
35989;BME280;22064;42.672;23.282;2023-03-25T02:07:28;94309.56;;;7.03;100.00
35989;BME280;22064;42.672;23.282;2023-03-25T02:10:04;94311.84;;;6.99;100.00
35989;BME280;22064;42.672;23.282;2023-03-25T02:12:31;94302.84;;;6.90;100.00
35989;BME280;22064;42.672;23.282;2023-03-25T02:14:58;94308.47;;;6.99;100.00
35989;BME280;22064;42.672;23.282;2023-03-25T02:29:23;94302.06;;;7.01;100.00
35989;BME280;22064;42.672;23.282;2023-03-25T02:32:05;94299.94;;;6.75;100.00
35989;BME280;22064;42.672;23.282;2023-03-25T02:45:28;94284.94;;;6.88;100.00
35989;BME280;22064;42.672;23.282;2023-03-25T02:48:01;94292.63;;;6.83;100.00
35989;BME280;22064;42.672;23.282;2023-03-25T02:50:40;94290.03;;;6.95;100.00
35989;BME280;22064;42.672;23.282;2023-03-25T02:53:13;94281.69;;;6.93;100.00
35989;BME280;22064;42.672;23.282;2023-03-25T02:55:43;94290.03;;;6.95;100.00
35989;BME280;22064;42.672;23.282;2023-03-25T02:58:15;94277.75;;;6.90;100.00
35989;BME280;22064;42.672;23.282;2023-03-25T03:00:42;94282.25;;;6.83;100.00
35989;BME280;22064;42.672;23.282;2023-03-25T03:03:08;94274.94;;;6.68;100.00
35989;BME280;22064;42.672;23.282;2023-03-25T03:05:43;94283.16;;;6.65;100.00
35989;BME280;22064;42.672;23.282;2023-03-25T03:11:22;94275.72;;;6.69;100.00
35989;BME280;22064;42.672;23.282;2023-03-25T03:19:58;94273.03;;;6.40;100.00
35989;BME280;22064;42.672;23.282;2023-03-25T03:22:46;94281.94;;;6.56;100.00
35989;BME280;22064;42.672;23.282;2023-03-25T03:30:48;94284.63;;;6.38;100.00
35989;BME280;22064;42.672;23.282;2023-03-25T03:33:30;94282.28;;;6.36;100.00
35989;BME280;22064;42.672;23.282;2023-03-25T03:36:00;94271.69;;;6.38;100.00
35989;BME280;22064;42.672;23.282;2023-03-25T03:38:36;94280.59;;;6.42;100.00
35989;BME280;22064;42.672;23.282;2023-03-25T03:41:07;94290.72;;;6.55;100.00
35989;BME280;22064;42.672;23.282;2023-03-25T03:46:29;94284.63;;;6.38;100.00
35989;BME280;22064;42.672;23.282;2023-03-25T03:48:59;94279.22;;;6.28;100.00
35989;BME280;22064;42.672;23.282;2023-03-25T03:51:32;94277.75;;;6.32;100.00
35989;BME280;22064;42.672;23.282;2023-03-25T03:54:25;94283.84;;;6.49;100.00
35989;BME280;22064;42.672;23.282;2023-03-25T03:56:54;94280.69;;;6.59;100.00
35989;BME280;22064;42.672;23.282;2023-03-25T04:01:55;94295.31;;;6.53;100.00
35989;BME280;22064;42.672;23.282;2023-03-25T04:04:24;94277.88;;;6.48;100.00
35989;BME280;22064;42.672;23.282;2023-03-25T04:06:55;94289.56;;;6.63;100.00
35989;BME280;22064;42.672;23.282;2023-03-25T04:09:43;94292.50;;;6.66;100.00
35989;BME280;22064;42.672;23.282;2023-03-25T04:12:27;94284.75;;;6.55;100.00
35989;BME280;22064;42.672;23.282;2023-03-25T04:14:54;94282.72;;;6.57;100.00
35989;BME280;22064;42.672;23.282;2023-03-25T04:17:21;94282.50;;;6.58;100.00
35989;BME280;22064;42.672;23.282;2023-03-25T04:19:47;94278.88;;;6.59;100.00
35989;BME280;22064;42.672;23.282;2023-03-25T04:22:15;94280.69;;;6.59;100.00
35989;BME280;22064;42.672;23.282;2023-03-25T04:24:41;94276.31;;;6.59;100.00
35989;BME280;22064;42.672;23.282;2023-03-25T04:27:08;94280.13;;;6.68;100.00
35989;BME280;22064;42.672;23.282;2023-03-25T04:29:38;94279.09;;;6.81;100.00
35989;BME280;22064;42.672;23.282;2023-03-25T04:32:05;94284.06;;;6.83;100.00
35989;BME280;22064;42.672;23.282;2023-03-25T04:34:31;94285.50;;;6.79;100.00
35989;BME280;22064;42.672;23.282;2023-03-25T04:36:57;94277.75;;;6.79;100.00
35989;BME280;22064;42.672;23.282;2023-03-25T04:39:23;94287.78;;;6.52;100.00
35989;BME280;22064;42.672;23.282;2023-03-25T04:41:51;94287.44;;;6.48;100.00
35989;BME280;22064;42.672;23.282;2023-03-25T04:44:29;94291.81;;;6.59;100.00
35989;BME280;22064;42.672;23.282;2023-03-25T04:46:59;94288.22;;;6.84;100.00
35989;BME280;22064;42.672;23.282;2023-03-25T04:49:26;94298.69;;;6.89;100.00
35989;BME280;22064;42.672;23.282;2023-03-25T04:51:53;94290.22;;;7.05;100.00
35989;BME280;22064;42.672;23.282;2023-03-25T04:54:20;94290.88;;;7.12;100.00
35989;BME280;22064;42.672;23.282;2023-03-25T04:56:48;94289.03;;;7.25;100.00
35989;BME280;22064;42.672;23.282;2023-03-25T04:59:15;94301.94;;;7.48;100.00
35989;BME280;22064;42.672;23.282;2023-03-25T05:01:41;94290.59;;;7.26;100.00
35989;BME280;22064;42.672;23.282;2023-03-25T05:04:11;94290.16;;;7.29;100.00
35989;BME280;22064;42.672;23.282;2023-03-25T05:06:43;94290.28;;;7.22;100.00
35989;BME280;22064;42.672;23.282;2023-03-25T05:09:12;94308.66;;;7.61;100.00
35989;BME280;22064;42.672;23.282;2023-03-25T05:11:38;94309.34;;;7.85;100.00
35989;BME280;22064;42.672;23.282;2023-03-25T05:14:07;94306.00;;;8.01;100.00
35989;BME280;22064;42.672;23.282;2023-03-25T05:16:33;94299.94;;;7.96;100.00
35989;BME280;22064;42.672;23.282;2023-03-25T05:19:00;94299.81;;;8.19;100.00
35989;BME280;22064;42.672;23.282;2023-03-25T05:21:32;94294.78;;;8.29;100.00
35989;BME280;22064;42.672;23.282;2023-03-25T05:24:01;94305.34;;;8.56;100.00
35989;BME280;22064;42.672;23.282;2023-03-25T05:26:28;94310.91;;;8.82;100.00
35989;BME280;22064;42.672;23.282;2023-03-25T05:29:03;94304.16;;;9.03;100.00
35989;BME280;22064;42.672;23.282;2023-03-25T05:31:29;94298.22;;;9.24;100.00
35989;BME280;22064;42.672;23.282;2023-03-25T05:33:55;94296.66;;;9.45;100.00
35989;BME280;22064;42.672;23.282;2023-03-25T05:36:22;94299.63;;;9.54;100.00
35989;BME280;22064;42.672;23.282;2023-03-25T05:38:52;94296.56;;;9.62;100.00
35989;BME280;22064;42.672;23.282;2023-03-25T05:41:26;94298.13;;;9.85;100.00
35989;BME280;22064;42.672;23.282;2023-03-25T05:44:00;94302.34;;;9.91;100.00
35989;BME280;22064;42.672;23.282;2023-03-25T05:46:27;94304.34;;;10.11;100.00
35989;BME280;22064;42.672;23.282;2023-03-25T05:48:56;94308.13;;;10.26;100.00
35989;BME280;22064;42.672;23.282;2023-03-25T05:51:23;94309.72;;;10.27;100.00
35989;BME280;22064;42.672;23.282;2023-03-25T05:53:50;94297.66;;;10.48;100.00
35989;BME280;22064;42.672;23.282;2023-03-25T05:56:17;94301.94;;;10.64;100.00
35989;BME280;22064;42.672;23.282;2023-03-25T05:58:47;94296.44;;;10.60;100.00
35989;BME280;22064;42.672;23.282;2023-03-25T06:01:14;94305.19;;;10.86;100.00
35989;BME280;22064;42.672;23.282;2023-03-25T06:03:42;94302.59;;;10.81;100.00
35989;BME280;22064;42.672;23.282;2023-03-25T06:06:08;94302.63;;;10.92;100.00
35989;BME280;22064;42.672;23.282;2023-03-25T06:08:45;94291.75;;;11.00;100.00
35989;BME280;22064;42.672;23.282;2023-03-25T06:11:12;94294.47;;;11.25;100.00
35989;BME280;22064;42.672;23.282;2023-03-25T06:13:41;94283.81;;;11.32;100.00
35989;BME280;22064;42.672;23.282;2023-03-25T06:16:21;94296.13;;;11.47;100.00
35989;BME280;22064;42.672;23.282;2023-03-25T06:18:49;94294.06;;;11.54;100.00
35989;BME280;22064;42.672;23.282;2023-03-25T06:21:19;94284.50;;;11.75;100.00
35989;BME280;22064;42.672;23.282;2023-03-25T06:23:45;94299.44;;;11.95;100.00
35989;BME280;22064;42.672;23.282;2023-03-25T06:26:17;94295.78;;;11.91;100.00
35989;BME280;22064;42.672;23.282;2023-03-25T06:28:44;94289.19;;;11.78;100.00
35989;BME280;22064;42.672;23.282;2023-03-25T06:31:21;94297.72;;;11.58;100.00
35989;BME280;22064;42.672;23.282;2023-03-25T06:33:51;94291.88;;;11.30;100.00
35989;BME280;22064;42.672;23.282;2023-03-25T06:36:18;94289.56;;;11.39;100.00
35989;BME280;22064;42.672;23.282;2023-03-25T06:38:48;94292.25;;;11.65;100.00
35989;BME280;22064;42.672;23.282;2023-03-25T06:41:16;94295.06;;;11.43;100.00
35989;BME280;22064;42.672;23.282;2023-03-25T06:43:50;94305.09;;;11.14;100.00
35989;BME280;22064;42.672;23.282;2023-03-25T06:46:48;94300.09;;;11.02;100.00
35989;BME280;22064;42.672;23.282;2023-03-25T06:49:17;94301.06;;;11.38;100.00
35989;BME280;22064;42.672;23.282;2023-03-25T06:51:43;94296.00;;;11.16;100.00
35989;BME280;22064;42.672;23.282;2023-03-25T06:54:09;94311.59;;;11.11;100.00
35989;BME280;22064;42.672;23.282;2023-03-25T06:56:35;94301.63;;;10.98;100.00
35989;BME280;22064;42.672;23.282;2023-03-25T06:59:01;94316.50;;;11.02;100.00
35989;BME280;22064;42.672;23.282;2023-03-25T07:01:27;94312.66;;;11.10;100.00
35989;BME280;22064;42.672;23.282;2023-03-25T07:03:53;94318.78;;;11.41;100.00
35989;BME280;22064;42.672;23.282;2023-03-25T07:06:21;94314.97;;;11.59;100.00
35989;BME280;22064;42.672;23.282;2023-03-25T07:08:48;94310.31;;;11.71;100.00
35989;BME280;22064;42.672;23.282;2023-03-25T07:11:17;94307.22;;;11.85;100.00
35989;BME280;22064;42.672;23.282;2023-03-25T07:13:44;94304.00;;;11.62;100.00
35989;BME280;22064;42.672;23.282;2023-03-25T07:16:10;94301.34;;;11.52;100.00
35989;BME280;22064;42.672;23.282;2023-03-25T07:18:36;94302.63;;;11.49;100.00
35989;BME280;22064;42.672;23.282;2023-03-25T07:21:03;94306.31;;;11.59;100.00
35989;BME280;22064;42.672;23.282;2023-03-25T07:23:29;94295.69;;;11.65;100.00
35989;BME280;22064;42.672;23.282;2023-03-25T07:25:54;94301.22;;;11.84;100.00
35989;BME280;22064;42.672;23.282;2023-03-25T07:28:21;94307.78;;;12.07;100.00
35989;BME280;22064;42.672;23.282;2023-03-25T07:30:48;94309.38;;;12.39;100.00
35989;BME280;22064;42.672;23.282;2023-03-25T07:33:14;94304.16;;;12.69;100.00
35989;BME280;22064;42.672;23.282;2023-03-25T07:35:40;94296.00;;;13.07;100.00
35989;BME280;22064;42.672;23.282;2023-03-25T07:38:05;94301.72;;;13.24;100.00
35989;BME280;22064;42.672;23.282;2023-03-25T07:40:31;94296.63;;;13.63;100.00
35989;BME280;22064;42.672;23.282;2023-03-25T07:42:57;94293.94;;;13.79;100.00
35989;BME280;22064;42.672;23.282;2023-03-25T07:45:49;94276.47;;;13.64;100.00
35989;BME280;22064;42.672;23.282;2023-03-25T07:48:15;94287.47;;;13.66;100.00
35989;BME280;22064;42.672;23.282;2023-03-25T07:50:42;94287.88;;;13.34;100.00
35989;BME280;22064;42.672;23.282;2023-03-25T07:53:08;94283.00;;;13.72;100.00
35989;BME280;22064;42.672;23.282;2023-03-25T07:55:34;94281.78;;;13.98;100.00
35989;BME280;22064;42.672;23.282;2023-03-25T07:58:01;94273.91;;;14.43;99.69
35989;BME280;22064;42.672;23.282;2023-03-25T08:00:28;94265.06;;;14.68;93.98
35989;BME280;22064;42.672;23.282;2023-03-25T08:02:55;94268.91;;;14.75;90.51
35989;BME280;22064;42.672;23.282;2023-03-25T08:05:21;94267.97;;;14.95;87.24
35989;BME280;22064;42.672;23.282;2023-03-25T08:07:48;94260.47;;;15.08;85.92
35989;BME280;22064;42.672;23.282;2023-03-25T08:10:14;94256.34;;;15.50;85.82
35989;BME280;22064;42.672;23.282;2023-03-25T08:12:41;94239.78;;;15.73;78.17
35989;BME280;22064;42.672;23.282;2023-03-25T08:15:07;94248.38;;;15.98;73.68
35989;BME280;22064;42.672;23.282;2023-03-25T08:17:33;94250.78;;;16.13;75.16
35989;BME280;22064;42.672;23.282;2023-03-25T08:19:59;94242.09;;;16.31;71.28
35989;BME280;22064;42.672;23.282;2023-03-25T08:22:26;94245.19;;;16.52;69.57
35989;BME280;22064;42.672;23.282;2023-03-25T08:24:52;94247.03;;;16.66;66.18
35989;BME280;22064;42.672;23.282;2023-03-25T08:27:18;94245.63;;;16.73;64.14
35989;BME280;22064;42.672;23.282;2023-03-25T08:29:45;94245.28;;;16.94;63.47
35989;BME280;22064;42.672;23.282;2023-03-25T08:32:26;94250.56;;;17.07;62.52
35989;BME280;22064;42.672;23.282;2023-03-25T08:34:53;94246.84;;;16.95;62.56
35989;BME280;22064;42.672;23.282;2023-03-25T08:37:20;94241.66;;;16.90;63.87
35989;BME280;22064;42.672;23.282;2023-03-25T08:39:46;94235.16;;;17.01;63.54
35989;BME280;22064;42.672;23.282;2023-03-25T08:42:15;94224.16;;;16.99;62.58
35989;BME280;22064;42.672;23.282;2023-03-25T08:44:41;94225.69;;;17.00;62.54
35989;BME280;22064;42.672;23.282;2023-03-25T08:47:08;94222.41;;;17.08;62.33
35989;BME280;22064;42.672;23.282;2023-03-25T08:49:34;94226.50;;;17.14;60.81
35989;BME280;22064;42.672;23.282;2023-03-25T08:52:00;94234.09;;;17.16;61.40
35989;BME280;22064;42.672;23.282;2023-03-25T08:54:27;94213.03;;;17.02;62.06
35989;BME280;22064;42.672;23.282;2023-03-25T08:56:53;94214.22;;;17.23;63.25
35989;BME280;22064;42.672;23.282;2023-03-25T08:59:19;94217.22;;;17.30;62.77
35989;BME280;22064;42.672;23.282;2023-03-25T09:01:46;94218.19;;;17.48;62.92
35989;BME280;22064;42.672;23.282;2023-03-25T09:04:12;94203.16;;;17.49;61.53
35989;BME280;22064;42.672;23.282;2023-03-25T09:06:38;94212.75;;;17.45;60.96
35989;BME280;22064;42.672;23.282;2023-03-25T09:09:06;94208.44;;;17.49;59.92
35989;BME280;22064;42.672;23.282;2023-03-25T09:11:33;94192.41;;;17.59;59.74
35989;BME280;22064;42.672;23.282;2023-03-25T09:13:59;94200.44;;;17.90;57.88
35989;BME280;22064;42.672;23.282;2023-03-25T09:16:32;94206.97;;;17.93;57.59
35989;BME280;22064;42.672;23.282;2023-03-25T09:18:59;94196.63;;;17.96;57.39
35989;BME280;22064;42.672;23.282;2023-03-25T09:21:26;94192.28;;;18.14;56.50
35989;BME280;22064;42.672;23.282;2023-03-25T09:23:52;94197.19;;;18.30;56.21
35989;BME280;22064;42.672;23.282;2023-03-25T09:26:18;94199.44;;;18.45;55.28
35989;BME280;22064;42.672;23.282;2023-03-25T09:28:44;94173.59;;;18.56;53.99
35989;BME280;22064;42.672;23.282;2023-03-25T09:31:10;94170.66;;;18.57;53.35
35989;BME280;22064;42.672;23.282;2023-03-25T09:33:36;94189.53;;;18.73;52.48
35989;BME280;22064;42.672;23.282;2023-03-25T09:36:02;94180.63;;;18.38;52.35
35989;BME280;22064;42.672;23.282;2023-03-25T09:38:28;94179.38;;;18.13;53.05
35989;BME280;22064;42.672;23.282;2023-03-25T09:40:55;94173.88;;;17.64;53.33
35989;BME280;22064;42.672;23.282;2023-03-25T09:43:33;94178.72;;;17.85;53.80
35989;BME280;22064;42.672;23.282;2023-03-25T09:46:00;94178.97;;;17.97;53.01
35989;BME280;22064;42.672;23.282;2023-03-25T09:48:37;94171.66;;;17.94;53.69
35989;BME280;22064;42.672;23.282;2023-03-25T09:51:12;94174.44;;;18.11;52.65
35989;BME280;22064;42.672;23.282;2023-03-25T09:54:19;94175.63;;;17.83;52.72
35989;BME280;22064;42.672;23.282;2023-03-25T09:56:48;94162.19;;;17.57;52.10
35989;BME280;22064;42.672;23.282;2023-03-25T09:59:21;94164.44;;;17.63;52.81
35989;BME280;22064;42.672;23.282;2023-03-25T10:02:18;94158.59;;;17.66;48.31
35989;BME280;22064;42.672;23.282;2023-03-25T10:05:18;94162.81;;;17.90;47.84
35989;BME280;22064;42.672;23.282;2023-03-25T10:15:55;94155.28;;;18.19;47.06
35989;BME280;22064;42.672;23.282;2023-03-25T10:18:37;94145.78;;;18.18;45.20
35989;BME280;22064;42.672;23.282;2023-03-25T10:21:15;94132.38;;;18.60;45.22
35989;BME280;22064;42.672;23.282;2023-03-25T10:26:27;94123.59;;;19.48;44.53
35989;BME280;22064;42.672;23.282;2023-03-25T10:29:09;94124.53;;;19.87;42.83
35989;BME280;22064;42.672;23.282;2023-03-25T10:31:41;94111.97;;;19.75;42.70
35989;BME280;22064;42.672;23.282;2023-03-25T10:34:16;94119.25;;;19.60;42.50
35989;BME280;22064;42.672;23.282;2023-03-25T10:36:50;94116.72;;;19.21;43.23
35989;BME280;22064;42.672;23.282;2023-03-25T10:39:20;94107.13;;;19.42;43.54
35989;BME280;22064;42.672;23.282;2023-03-25T10:41:59;94105.09;;;19.30;44.92
35989;BME280;22064;42.672;23.282;2023-03-25T10:44:26;94111.72;;;18.93;46.15
35989;BME280;22064;42.672;23.282;2023-03-25T10:47:03;94093.66;;;18.78;46.67
35989;BME280;22064;42.672;23.282;2023-03-25T10:49:31;94093.00;;;18.72;47.44
35989;BME280;22064;42.672;23.282;2023-03-25T10:51:58;94100.81;;;18.77;48.10
35989;BME280;22064;42.672;23.282;2023-03-25T10:54:29;94095.25;;;18.79;48.16
35989;BME280;22064;42.672;23.282;2023-03-25T10:57:02;94076.72;;;18.70;47.97
35989;BME280;22064;42.672;23.282;2023-03-25T10:59:39;94073.53;;;18.82;48.44
35989;BME280;22064;42.672;23.282;2023-03-25T11:02:18;94076.53;;;19.32;48.03
35989;BME280;22064;42.672;23.282;2023-03-25T11:04:47;94072.66;;;19.30;47.38
35989;BME280;22064;42.672;23.282;2023-03-25T11:07:19;94062.72;;;19.35;47.36
35989;BME280;22064;42.672;23.282;2023-03-25T11:09:46;94074.34;;;19.52;46.63
35989;BME280;22064;42.672;23.282;2023-03-25T11:12:17;94063.16;;;19.81;45.64
35989;BME280;22064;42.672;23.282;2023-03-25T11:14:44;94049.78;;;19.95;44.61
35989;BME280;22064;42.672;23.282;2023-03-25T11:17:15;94057.22;;;20.48;43.57
35989;BME280;22064;42.672;23.282;2023-03-25T11:22:30;94056.19;;;19.59;43.58
35989;BME280;22064;42.672;23.282;2023-03-25T11:25:00;94056.97;;;19.59;42.99
35989;BME280;22064;42.672;23.282;2023-03-25T11:27:28;94048.44;;;19.71;43.29
35989;BME280;22064;42.672;23.282;2023-03-25T11:30:04;94049.34;;;19.49;42.48
35989;BME280;22064;42.672;23.282;2023-03-25T11:32:40;94052.78;;;19.76;41.43
35989;BME280;22064;42.672;23.282;2023-03-25T11:35:21;94043.91;;;19.63;42.04
35989;BME280;22064;42.672;23.282;2023-03-25T11:37:55;94024.25;;;20.16;41.72
35989;BME280;22064;42.672;23.282;2023-03-25T11:40:21;94027.81;;;21.09;39.85
35989;BME280;22064;42.672;23.282;2023-03-25T11:42:56;94023.56;;;21.38;39.19
35989;BME280;22064;42.672;23.282;2023-03-25T11:45:28;94016.22;;;20.72;39.40
35989;BME280;22064;42.672;23.282;2023-03-25T11:48:00;94007.03;;;20.40;39.81
35989;BME280;22064;42.672;23.282;2023-03-25T11:50:28;94017.41;;;20.53;39.87
35989;BME280;22064;42.672;23.282;2023-03-25T11:52:58;94005.44;;;20.77;39.05
35989;BME280;22064;42.672;23.282;2023-03-25T11:55:31;94003.09;;;20.55;39.66
35989;BME280;22064;42.672;23.282;2023-03-25T11:58:02;93991.56;;;20.21;39.34
35989;BME280;22064;42.672;23.282;2023-03-25T12:00:39;93996.16;;;20.33;39.80
35989;BME280;22064;42.672;23.282;2023-03-25T12:05:40;94001.56;;;20.06;40.41
35989;BME280;22064;42.672;23.282;2023-03-25T12:08:14;94004.28;;;19.72;40.78
35989;BME280;22064;42.672;23.282;2023-03-25T12:10:54;94029.00;;;19.76;40.95
35989;BME280;22064;42.672;23.282;2023-03-25T12:13:42;93995.78;;;19.31;41.38
35989;BME280;22064;42.672;23.282;2023-03-25T12:19:06;94003.09;;;19.26;41.77
35989;BME280;22064;42.672;23.282;2023-03-25T12:30:34;94009.13;;;19.44;41.21
35989;BME280;22064;42.672;23.282;2023-03-25T12:39:20;94001.53;;;19.59;40.87
35989;BME280;22064;42.672;23.282;2023-03-25T12:47:28;94000.91;;;18.93;41.43
35989;BME280;22064;42.672;23.282;2023-03-25T13:08:19;93988.28;;;18.64;42.08
35989;BME280;22064;42.672;23.282;2023-03-25T13:10:54;93995.41;;;18.55;42.26
35989;BME280;22064;42.672;23.282;2023-03-25T13:13:23;93989.31;;;18.37;42.73
35989;BME280;22064;42.672;23.282;2023-03-25T13:18:30;93986.66;;;18.37;44.10
35989;BME280;22064;42.672;23.282;2023-03-25T13:21:10;93992.09;;;18.32;44.32
35989;BME280;22064;42.672;23.282;2023-03-25T13:23:39;93987.84;;;18.22;43.66
35989;BME280;22064;42.672;23.282;2023-03-25T13:26:11;93990.03;;;18.20;43.70
35989;BME280;22064;42.672;23.282;2023-03-25T13:28:42;93993.41;;;18.12;44.22
35989;BME280;22064;42.672;23.282;2023-03-25T13:31:19;94003.06;;;18.16;44.37
35989;BME280;22064;42.672;23.282;2023-03-25T13:33:55;94001.50;;;18.24;44.70
35989;BME280;22064;42.672;23.282;2023-03-25T13:36:38;93998.16;;;18.32;45.07
35989;BME280;22064;42.672;23.282;2023-03-25T13:39:26;94005.31;;;18.09;44.15
35989;BME280;22064;42.672;23.282;2023-03-25T13:42:12;94037.59;;;17.84;44.93
35989;BME280;22064;42.672;23.282;2023-03-25T13:44:43;94026.91;;;16.99;49.98
35989;BME280;22064;42.672;23.282;2023-03-25T13:47:16;94035.66;;;16.94;54.60
35989;BME280;22064;42.672;23.282;2023-03-25T13:49:54;94037.84;;;16.51;65.20
35989;BME280;22064;42.672;23.282;2023-03-25T13:52:25;94046.91;;;16.17;74.29
35989;BME280;22064;42.672;23.282;2023-03-25T13:55:03;94039.97;;;16.07;77.70
35989;BME280;22064;42.672;23.282;2023-03-25T14:00:32;94070.47;;;14.81;100.00
35989;BME280;22064;42.672;23.282;2023-03-25T14:13:54;94056.06;;;15.54;100.00
35989;BME280;22064;42.672;23.282;2023-03-25T14:16:25;94064.03;;;15.68;100.00
35989;BME280;22064;42.672;23.282;2023-03-25T14:18:58;94053.41;;;15.73;100.00
35989;BME280;22064;42.672;23.282;2023-03-25T14:21:30;94042.78;;;15.64;100.00
35989;BME280;22064;42.672;23.282;2023-03-25T14:24:32;94050.75;;;15.59;100.00
35989;BME280;22064;42.672;23.282;2023-03-25T14:27:02;94048.88;;;15.60;100.00
35989;BME280;22064;42.672;23.282;2023-03-25T14:29:40;94036.44;;;15.52;100.00
35989;BME280;22064;42.672;23.282;2023-03-25T14:34:47;94027.41;;;15.58;100.00
35989;BME280;22064;42.672;23.282;2023-03-25T14:39:46;93966.19;;;15.62;100.00
35989;BME280;22064;42.672;23.282;2023-03-25T14:42:39;93953.53;;;15.51;100.00
35989;BME280;22064;42.672;23.282;2023-03-25T14:48:05;93966.53;;;15.42;100.00
35989;BME280;22064;42.672;23.282;2023-03-25T14:50:35;93970.03;;;15.51;100.00
35989;BME280;22064;42.672;23.282;2023-03-25T14:53:03;93962.03;;;15.29;100.00
35989;BME280;22064;42.672;23.282;2023-03-25T14:55:40;93967.19;;;15.34;100.00
35989;BME280;22064;42.672;23.282;2023-03-25T14:58:25;93954.28;;;15.70;100.00
35989;BME280;22064;42.672;23.282;2023-03-25T15:01:01;93955.28;;;16.02;100.00
35989;BME280;22064;42.672;23.282;2023-03-25T15:03:34;93949.72;;;16.17;100.00
35989;BME280;22064;42.672;23.282;2023-03-25T15:06:03;93946.78;;;16.19;100.00
35989;BME280;22064;42.672;23.282;2023-03-25T15:08:40;93953.59;;;16.20;100.00
35989;BME280;22064;42.672;23.282;2023-03-25T15:11:13;93947.28;;;16.21;100.00
35989;BME280;22064;42.672;23.282;2023-03-25T15:13:43;93943.41;;;16.18;100.00
35989;BME280;22064;42.672;23.282;2023-03-25T15:16:35;93947.28;;;16.21;100.00